Time;durP1;ratioP1;P1;durP2;ratioP2;P2;SDS_P1;SDS_P2;PMS_P1;PMS_P2;Temp;Humidity;BMP_temperature;BMP_pressure;BME280_temperature;BME280_humidity;BME280_pressure;Samples;Min_cycle;Max_cycle;Signal;HPM_P1;HPM_P2
2022/03/01 00:00:40;;;;;;;15.00;9.40;;;-2.00;99.90;;;;;;5063534;28;20893;-75
2022/03/01 00:03:09;;;;;;;14.03;9.23;;;-2.00;99.90;;;;;;5053818;28;20913;-77
2022/03/01 00:05:37;;;;;;;15.13;9.63;;;-2.00;99.90;;;;;;5067144;28;20454;-76
2022/03/01 00:08:06;;;;;;;16.50;9.13;;;-2.00;99.90;;;;;;5073882;28;20513;-75
2022/03/01 00:10:34;;;;;;;14.67;9.37;;;-2.10;99.90;;;;;;5073323;28;20458;-77
2022/03/01 00:13:03;;;;;;;15.30;9.20;;;-2.10;99.90;;;;;;5073764;28;20489;-75
2022/03/01 00:15:31;;;;;;;13.97;9.60;;;-2.10;99.90;;;;;;5073387;28;20453;-76
2022/03/01 00:18:00;;;;;;;15.23;9.13;;;-2.10;99.90;;;;;;5071609;28;20993;-77
2022/03/01 00:20:28;;;;;;;15.37;9.30;;;-2.10;99.90;;;;;;5073072;28;20835;-75
2022/03/01 00:22:56;;;;;;;14.10;8.43;;;-2.20;99.90;;;;;;5073248;28;20552;-74
2022/03/01 00:25:24;;;;;;;14.57;9.03;;;-2.20;99.90;;;;;;5073093;28;20548;-76
2022/03/01 00:27:52;;;;;;;13.93;9.37;;;-2.30;99.90;;;;;;5064472;28;20578;-75
2022/03/01 00:30:22;;;;;;;14.50;8.73;;;-2.30;99.90;;;;;;5070535;28;20588;-74
2022/03/01 00:32:50;;;;;;;14.43;9.13;;;-2.30;99.90;;;;;;5073101;28;20441;-77
2022/03/01 00:35:19;;;;;;;14.57;8.90;;;-2.40;99.90;;;;;;5069473;28;20915;-74
2022/03/01 00:37:47;;;;;;;15.37;8.50;;;-2.40;99.90;;;;;;5068361;28;20995;-76
2022/03/01 00:40:15;;;;;;;15.13;9.20;;;-2.50;99.90;;;;;;5072369;28;20965;-74
2022/03/01 00:42:43;;;;;;;14.77;8.90;;;-2.40;99.90;;;;;;5068550;28;20493;-76
2022/03/01 00:45:12;;;;;;;13.57;8.30;;;-2.40;99.90;;;;;;5053190;28;20477;-74
2022/03/01 00:47:44;;;;;;;12.67;7.87;;;-2.40;99.90;;;;;;5052681;28;20486;-75
2022/03/01 00:50:13;;;;;;;15.07;8.80;;;-2.50;99.90;;;;;;5070507;28;20481;-76
2022/03/01 00:52:41;;;;;;;12.60;8.27;;;-2.50;99.90;;;;;;5072504;28;20484;-74
2022/03/01 00:55:09;;;;;;;12.97;7.87;;;-2.50;99.90;;;;;;5060435;28;20596;-74
2022/03/01 00:57:38;;;;;;;13.53;7.90;;;-2.50;99.90;;;;;;5052109;28;21222;-76
2022/03/01 01:00:09;;;;;;;16.70;8.33;;;-2.50;99.90;;;;;;5055236;28;20464;-75
2022/03/01 01:02:37;;;;;;;12.23;8.00;;;-2.50;99.90;;;;;;5071587;28;20445;-76
2022/03/01 01:05:10;;;;;;;14.20;8.23;;;-2.50;99.90;;;;;;5072711;28;20509;-78
2022/03/01 01:07:40;;;;;;;14.37;8.27;;;-2.50;99.90;;;;;;5071610;28;20842;-77
2022/03/01 01:10:11;;;;;;;32.27;8.00;;;-2.50;99.90;;;;;;5064631;28;20503;-76
2022/03/01 01:12:41;;;;;;;12.17;7.97;;;-2.60;99.90;;;;;;5072163;28;20502;-76
2022/03/01 01:15:12;;;;;;;13.47;7.80;;;-2.60;99.90;;;;;;5072609;28;20458;-75
2022/03/01 01:17:41;;;;;;;12.53;7.47;;;-2.60;99.90;;;;;;5062118;28;20492;-75
2022/03/01 01:20:11;;;;;;;13.70;7.37;;;-2.60;99.90;;;;;;5051950;28;20443;-74
2022/03/01 01:22:43;;;;;;;11.67;7.90;;;-2.60;99.90;;;;;;5052281;28;20562;-75
2022/03/01 01:25:17;;;;;;;12.93;7.80;;;-2.70;99.90;;;;;;5051529;28;20454;-77
2022/03/01 01:27:47;;;;;;;12.63;7.60;;;-2.80;99.90;;;;;;5051220;28;20996;-74
2022/03/01 01:30:17;;;;;;;12.77;7.60;;;-2.80;99.90;;;;;;5070301;28;20897;-75
2022/03/01 01:32:48;;;;;;;12.47;7.60;;;-2.80;99.90;;;;;;5071832;28;20442;-74
2022/03/01 01:35:20;;;;;;;11.03;6.87;;;-2.80;99.90;;;;;;5071376;28;20469;-76
2022/03/01 01:37:50;;;;;;;11.47;6.90;;;-2.80;99.90;;;;;;5070454;28;20536;-77
2022/03/01 01:40:22;;;;;;;10.20;6.53;;;-2.80;99.90;;;;;;5071031;28;20473;-76
2022/03/01 01:42:51;;;;;;;11.30;6.83;;;-2.80;99.90;;;;;;5071574;28;20559;-75
2022/03/01 01:45:20;;;;;;;11.03;7.00;;;-2.90;99.90;;;;;;5071886;28;20473;-74
2022/03/01 01:47:50;;;;;;;15.37;7.50;;;-2.90;99.90;;;;;;5071427;28;20842;-75
2022/03/01 01:50:24;;;;;;;12.03;6.90;;;-2.90;99.90;;;;;;5071303;28;20480;-74
2022/03/01 01:52:54;;;;;;;11.83;7.27;;;-2.80;99.90;;;;;;5072472;28;20521;-76
2022/03/01 01:55:24;;;;;;;10.23;6.10;;;-2.80;99.90;;;;;;5071754;28;20441;-78
2022/03/01 01:57:58;;;;;;;11.43;6.83;;;-2.80;99.90;;;;;;5067544;28;20483;-76
2022/03/01 02:00:28;;;;;;;10.07;6.53;;;-2.80;99.90;;;;;;5068988;28;20486;-77
2022/03/01 02:02:58;;;;;;;12.67;6.23;;;-2.80;99.90;;;;;;5071875;28;20918;-75
2022/03/01 02:05:29;;;;;;;9.77;6.00;;;-2.80;99.90;;;;;;5070344;28;20452;-73
2022/03/01 02:07:58;;;;;;;10.53;6.20;;;-2.80;99.90;;;;;;5051611;28;20864;-75
2022/03/01 02:10:27;;;;;;;10.87;6.23;;;-2.80;99.90;;;;;;5053190;28;20553;-77
2022/03/01 02:12:56;;;;;;;10.00;6.10;;;-2.80;99.90;;;;;;5070913;28;20950;-75
2022/03/01 02:15:26;;;;;;;9.50;6.27;;;-2.80;99.90;;;;;;5067014;28;20460;-75
2022/03/01 02:17:56;;;;;;;10.93;6.60;;;-2.90;99.90;;;;;;5066496;28;20532;-76
2022/03/01 02:20:29;;;;;;;11.43;6.77;;;-2.90;99.90;;;;;;5069229;28;20970;-76
2022/03/01 02:22:57;;;;;;;11.00;6.30;;;-2.90;99.90;;;;;;5051736;28;20465;-74
2022/03/01 02:25:26;;;;;;;10.23;6.33;;;-2.90;99.90;;;;;;5061113;28;20452;-78
2022/03/01 02:27:53;;;;;;;11.40;6.10;;;-2.90;99.90;;;;;;5051683;28;20512;-74
2022/03/01 02:30:24;;;;;;;10.83;6.27;;;-2.90;99.90;;;;;;5068213;28;20551;-77
2022/03/01 02:32:53;;;;;;;12.23;6.30;;;-2.90;99.90;;;;;;5070677;28;20460;-74
2022/03/01 02:35:23;;;;;;;11.03;6.23;;;-2.90;99.90;;;;;;5069275;28;20441;-76
2022/03/01 02:37:52;;;;;;;12.07;5.90;;;-2.90;99.90;;;;;;5063074;28;20480;-74
2022/03/01 02:40:21;;;;;;;9.93;5.83;;;-2.90;99.90;;;;;;5070992;28;20526;-78
2022/03/01 02:42:49;;;;;;;11.63;6.63;;;-3.00;99.90;;;;;;5070506;28;20473;-75
2022/03/01 02:45:19;;;;;;;11.17;6.47;;;-3.00;99.90;;;;;;5069983;28;20934;-74
2022/03/01 02:47:47;;;;;;;10.30;6.43;;;-3.00;99.90;;;;;;5071247;28;20469;-76
2022/03/01 02:50:16;;;;;;;9.73;5.73;;;-3.00;99.90;;;;;;5071178;28;20482;-74
2022/03/01 02:52:44;;;;;;;9.80;6.10;;;-3.00;99.90;;;;;;5071339;28;20457;-77
2022/03/01 02:55:15;;;;;;;10.83;6.10;;;-3.10;99.90;;;;;;5070323;28;20547;-76
2022/03/01 02:57:43;;;;;;;9.70;5.57;;;-3.10;99.90;;;;;;5069948;28;20816;-75
2022/03/01 03:00:13;;;;;;;10.00;5.80;;;-3.10;99.90;;;;;;5070001;28;20478;-78
2022/03/01 03:02:42;;;;;;;11.67;5.67;;;-3.10;99.90;;;;;;5071013;28;20521;-75
2022/03/01 03:05:10;;;;;;;9.77;6.07;;;-3.20;99.90;;;;;;5070552;28;20450;-74
2022/03/01 03:07:41;;;;;;;9.00;5.67;;;-3.20;99.90;;;;;;5075924;28;20437;-75
2022/03/01 03:10:10;;;;;;;9.80;5.97;;;-3.20;99.90;;;;;;5071055;28;20492;-76
2022/03/01 03:12:40;;;;;;;10.93;6.00;;;-3.30;99.90;;;;;;5071303;28;20480;-75
2022/03/01 03:15:09;;;;;;;10.60;6.00;;;-3.30;99.90;;;;;;5057590;28;20946;-77
2022/03/01 03:17:38;;;;;;;9.30;5.77;;;-3.30;99.90;;;;;;5052094;28;20544;-75
2022/03/01 03:20:08;;;;;;;9.37;5.63;;;-3.30;99.90;;;;;;5053817;28;20565;-77
2022/03/01 03:22:40;;;;;;;9.57;6.00;;;-3.30;99.90;;;;;;5054279;28;20463;-77
2022/03/01 03:25:09;;;;;;;10.47;6.07;;;-3.30;99.90;;;;;;5054842;28;20500;-76
2022/03/01 03:27:37;;;;;;;10.97;5.83;;;-3.40;99.90;;;;;;5074446;28;20459;-75
2022/03/01 03:30:08;;;;;;;11.13;6.53;;;-3.40;99.90;;;;;;5074931;28;20888;-75
2022/03/01 03:32:37;;;;;;;12.03;6.23;;;-3.40;99.90;;;;;;5074447;28;20485;-75
2022/03/01 03:35:06;;;;;;;10.30;5.97;;;-3.40;99.90;;;;;;5074484;28;20483;-76
2022/03/01 03:37:34;;;;;;;10.00;6.03;;;-3.40;99.90;;;;;;5074141;28;20471;-74
2022/03/01 03:40:06;;;;;;;9.13;5.80;;;-3.50;99.90;;;;;;5073786;28;20537;-75
2022/03/01 03:42:34;;;;;;;9.17;5.63;;;-3.50;99.90;;;;;;5074405;28;20523;-78
2022/03/01 03:45:09;;;;;;;9.90;6.60;;;-3.50;99.90;;;;;;5074450;28;20520;-75
2022/03/01 03:47:38;;;;;;;10.37;6.30;;;-3.50;99.90;;;;;;5073953;28;20949;-74
2022/03/01 03:50:09;;;;;;;10.67;6.07;;;-3.50;99.90;;;;;;5073910;28;20489;-75
2022/03/01 03:52:38;;;;;;;11.57;6.30;;;-3.60;99.90;;;;;;5073978;28;20427;-76
2022/03/01 03:55:07;;;;;;;9.03;5.77;;;-3.50;99.90;;;;;;5073905;28;20860;-76
2022/03/01 03:57:36;;;;;;;8.67;5.50;;;-3.50;99.90;;;;;;5073874;28;20526;-76
2022/03/01 04:00:09;;;;;;;9.50;5.80;;;-3.60;99.90;;;;;;5074445;28;20488;-77
2022/03/01 04:02:37;;;;;;;10.60;6.00;;;-3.60;99.90;;;;;;5073149;28;20471;-78
2022/03/01 04:05:06;;;;;;;9.17;5.47;;;-3.50;99.90;;;;;;5073868;28;20452;-75
2022/03/01 04:07:35;;;;;;;11.40;6.23;;;-3.60;99.90;;;;;;5073930;28;20448;-75
2022/03/01 04:10:03;;;;;;;11.30;6.30;;;-3.60;99.90;;;;;;5073002;28;20513;-77
2022/03/01 04:12:32;;;;;;;10.80;6.00;;;-3.50;99.90;;;;;;5074882;28;20460;-77
2022/03/01 04:15:00;;;;;;;8.87;6.03;;;-3.50;99.90;;;;;;5078828;28;20634;-75
2022/03/01 04:17:30;;;;;;;9.37;5.77;;;-3.50;99.90;;;;;;5080763;28;20457;-77
2022/03/01 04:19:58;;;;;;;9.13;5.67;;;-3.50;99.90;;;;;;5079872;28;20571;-75
2022/03/01 04:22:29;;;;;;;10.37;6.43;;;-3.50;99.90;;;;;;5079844;28;20447;-75
2022/03/01 04:25:00;;;;;;;12.80;6.03;;;-3.50;99.90;;;;;;5079834;28;20480;-75
2022/03/01 04:27:28;;;;;;;10.93;5.77;;;-3.50;99.90;;;;;;5078186;28;20498;-76
2022/03/01 04:29:56;;;;;;;8.97;5.57;;;-3.50;99.90;;;;;;5077316;28;20455;-75
2022/03/01 04:32:24;;;;;;;13.10;6.07;;;-3.50;99.90;;;;;;5078917;28;20477;-77
2022/03/01 04:34:54;;;;;;;11.07;6.30;;;-3.40;99.90;;;;;;5076816;28;20455;-77
2022/03/01 04:37:22;;;;;;;10.37;6.13;;;-3.50;99.90;;;;;;5073434;28;20476;-76
2022/03/01 04:39:50;;;;;;;10.73;5.70;;;-3.50;99.90;;;;;;5074589;28;20494;-77
2022/03/01 04:42:18;;;;;;;10.27;5.90;;;-3.50;99.90;;;;;;5072567;28;20552;-77
2022/03/01 04:44:46;;;;;;;10.70;6.53;;;-3.50;99.90;;;;;;5072929;28;20456;-77
2022/03/01 04:47:15;;;;;;;11.17;6.13;;;-3.50;99.90;;;;;;5072887;28;20484;-76
2022/03/01 04:49:43;;;;;;;11.27;6.20;;;-3.60;99.90;;;;;;5072745;28;20464;-77
2022/03/01 04:52:12;;;;;;;9.97;6.20;;;-3.50;99.90;;;;;;5072825;28;20524;-79
2022/03/01 04:54:41;;;;;;;11.53;6.17;;;-3.60;99.90;;;;;;5073101;28;20540;-78
2022/03/01 04:57:08;;;;;;;10.97;6.07;;;-3.60;99.90;;;;;;5072744;28;21061;-75
2022/03/01 04:59:36;;;;;;;9.00;5.67;;;-3.60;99.90;;;;;;5074827;28;20488;-75
2022/03/01 05:02:05;;;;;;;11.73;6.13;;;-3.60;99.90;;;;;;5074883;28;20539;-75
2022/03/01 05:04:33;;;;;;;11.87;6.37;;;-3.60;99.90;;;;;;5073795;28;20475;-75
2022/03/01 05:07:01;;;;;;;9.13;6.07;;;-3.60;99.90;;;;;;5073742;28;20460;-76
2022/03/01 05:09:34;;;;;;;10.17;5.97;;;-3.60;99.90;;;;;;5074507;28;20498;-77
2022/03/01 05:12:02;;;;;;;9.90;6.40;;;-3.60;99.90;;;;;;5074371;28;20453;-78
2022/03/01 05:14:33;;;;;;;9.97;6.47;;;-3.60;99.90;;;;;;5072423;28;20538;-77
2022/03/01 05:17:01;;;;;;;10.63;6.57;;;-3.60;99.90;;;;;;5073144;28;20476;-76
2022/03/01 05:19:29;;;;;;;10.63;6.40;;;-3.60;99.90;;;;;;5072682;28;20946;-78
2022/03/01 05:21:58;;;;;;;12.57;6.50;;;-3.70;99.90;;;;;;5073088;28;20523;-77
2022/03/01 05:24:27;;;;;;;10.33;6.10;;;-3.70;99.90;;;;;;5075968;28;21165;-74
2022/03/01 05:26:56;;;;;;;14.77;7.00;;;-3.70;99.90;;;;;;5076973;28;20488;-77
2022/03/01 05:29:24;;;;;;;12.33;6.97;;;-3.70;99.90;;;;;;5078999;28;20463;-75
2022/03/01 05:31:52;;;;;;;9.87;6.70;;;-3.70;99.90;;;;;;5080665;28;20484;-75
2022/03/01 05:34:20;;;;;;;15.53;7.30;;;-3.80;99.90;;;;;;5076699;28;20534;-75
2022/03/01 05:36:49;;;;;;;11.43;6.47;;;-3.80;99.90;;;;;;5077588;28;20468;-77
2022/03/01 05:39:18;;;;;;;11.40;6.63;;;-3.80;99.90;;;;;;5080756;28;20455;-74
2022/03/01 05:41:46;;;;;;;10.20;6.33;;;-3.80;99.90;;;;;;5077116;28;20503;-76
2022/03/01 05:44:15;;;;;;;15.23;6.83;;;-3.90;99.90;;;;;;5080605;28;20448;-75
2022/03/01 05:46:44;;;;;;;11.47;6.60;;;-3.90;99.90;;;;;;5079561;28;20494;-75
2022/03/01 05:49:12;;;;;;;13.40;6.47;;;-3.90;99.90;;;;;;5080106;28;20949;-77
2022/03/01 05:51:45;;;;;;;11.77;6.97;;;-3.90;99.90;;;;;;5079034;28;20462;-77
2022/03/01 05:54:13;;;;;;;11.30;6.70;;;-3.90;99.90;;;;;;5076279;28;20538;-76
2022/03/01 05:56:42;;;;;;;13.10;6.73;;;-4.00;99.90;;;;;;5073349;28;20450;-75
2022/03/01 05:59:10;;;;;;;12.03;6.40;;;-3.90;99.90;;;;;;5071683;28;20531;-75
2022/03/01 06:01:39;;;;;;;10.43;6.87;;;-3.90;99.90;;;;;;5071161;28;20533;-78
2022/03/01 06:04:08;;;;;;;10.50;6.53;;;-3.90;99.90;;;;;;5072420;28;20465;-76
2022/03/01 06:06:36;;;;;;;10.97;6.80;;;-3.90;99.90;;;;;;5071227;28;20492;-78
2022/03/01 06:09:04;;;;;;;12.73;6.40;;;-3.80;99.90;;;;;;5071664;28;20465;-76
2022/03/01 06:11:32;;;;;;;12.03;6.60;;;-3.80;99.90;;;;;;5071399;28;20471;-76
2022/03/01 06:14:01;;;;;;;13.20;7.10;;;-3.80;99.90;;;;;;5071475;28;21010;-75
2022/03/01 06:16:29;;;;;;;10.53;6.13;;;-3.80;99.90;;;;;;5071794;28;20490;-75
2022/03/01 06:18:59;;;;;;;10.37;6.80;;;-3.80;99.90;;;;;;5072114;28;20448;-78
2022/03/01 06:21:27;;;;;;;11.70;6.60;;;-3.70;99.90;;;;;;5071509;28;20520;-76
2022/03/01 06:23:56;;;;;;;11.60;6.53;;;-3.70;99.90;;;;;;5071675;28;20449;-75
2022/03/01 06:26:25;;;;;;;11.73;7.07;;;-3.70;99.90;;;;;;5070926;28;20475;-77
2022/03/01 06:28:53;;;;;;;11.30;7.47;;;-3.70;99.90;;;;;;5071503;28;20459;-77
2022/03/01 06:31:21;;;;;;;12.07;7.03;;;-3.70;99.90;;;;;;5070534;28;20526;-76
2022/03/01 06:33:49;;;;;;;11.90;6.33;;;-3.60;99.90;;;;;;5071702;28;20457;-76
2022/03/01 06:36:20;;;;;;;13.23;6.97;;;-3.60;99.90;;;;;;5070803;28;20447;-75
2022/03/01 06:38:48;;;;;;;11.73;7.00;;;-3.60;99.90;;;;;;5071697;28;20541;-75
2022/03/01 06:41:19;;;;;;;9.57;6.00;;;-3.50;99.90;;;;;;5070651;28;20510;-75
2022/03/01 06:43:49;;;;;;;12.60;7.10;;;-3.50;99.90;;;;;;5071348;28;20519;-77
2022/03/01 06:46:20;;;;;;;12.47;6.97;;;-3.50;99.90;;;;;;5073305;28;20478;-77
2022/03/01 06:48:49;;;;;;;14.20;7.00;;;-3.50;99.90;;;;;;5055399;28;20479;-76
2022/03/01 06:51:17;;;;;;;11.40;6.73;;;-3.40;99.90;;;;;;5069949;28;20488;-77
2022/03/01 06:53:46;;;;;;;11.47;6.90;;;-3.40;99.90;;;;;;5074301;28;20445;-76
2022/03/01 06:56:15;;;;;;;11.77;6.33;;;-3.40;99.90;;;;;;5075303;28;20429;-76
2022/03/01 06:58:43;;;;;;;12.30;7.27;;;-3.30;99.90;;;;;;5075263;28;20503;-79
2022/03/01 07:01:11;;;;;;;10.17;6.13;;;-3.30;99.90;;;;;;5074692;28;20515;-78
2022/03/01 07:03:42;;;;;;;10.17;6.40;;;-3.20;99.90;;;;;;5074230;28;20803;-77
2022/03/01 07:06:11;;;;;;;9.93;6.97;;;-3.20;99.90;;;;;;5075117;28;20506;-77
2022/03/01 07:08:39;;;;;;;11.20;6.47;;;-3.10;99.90;;;;;;5069096;28;20450;-79
2022/03/01 07:11:09;;;;;;;11.43;7.20;;;-3.10;99.90;;;;;;5054939;28;20540;-76
2022/03/01 07:13:37;;;;;;;10.50;6.67;;;-3.00;99.90;;;;;;5062380;28;20458;-77
2022/03/01 07:16:05;;;;;;;10.37;6.67;;;-3.00;99.90;;;;;;5075123;28;20465;-77
2022/03/01 07:18:38;;;;;;;13.20;7.23;;;-2.90;99.90;;;;;;5075409;28;20445;-75
2022/03/01 07:21:06;;;;;;;10.60;6.80;;;-2.80;99.90;;;;;;5075220;28;20517;-76
2022/03/01 07:23:34;;;;;;;11.23;6.90;;;-2.80;99.90;;;;;;5075641;28;20481;-76
2022/03/01 07:26:04;;;;;;;11.87;7.03;;;-2.70;99.90;;;;;;5074040;28;20537;-78
2022/03/01 07:28:34;;;;;;;15.00;7.60;;;-2.60;99.90;;;;;;5074349;28;20871;-76
2022/03/01 07:31:02;;;;;;;10.77;6.77;;;-2.60;99.90;;;;;;5074440;28;20524;-77
2022/03/01 07:33:32;;;;;;;13.47;6.63;;;-2.50;99.90;;;;;;5076970;28;20946;-78
2022/03/01 07:36:00;;;;;;;13.80;6.50;;;-2.40;99.90;;;;;;5076994;28;20481;-76
2022/03/01 07:38:28;;;;;;;10.23;6.13;;;-2.30;99.90;;;;;;5073900;28;20492;-76
2022/03/01 07:40:56;;;;;;;10.37;6.53;;;-2.30;99.90;;;;;;5073113;28;20485;-76
2022/03/01 07:43:24;;;;;;;9.43;6.03;;;-2.20;99.90;;;;;;5068804;28;20909;-75
2022/03/01 07:45:54;;;;;;;10.77;6.13;;;-2.20;99.90;;;;;;5071984;28;20540;-75
2022/03/01 07:48:22;;;;;;;12.63;6.97;;;-2.10;99.90;;;;;;5074032;28;20464;-76
2022/03/01 07:50:50;;;;;;;10.40;6.57;;;-2.00;99.90;;;;;;5075577;28;20441;-74
2022/03/01 07:53:19;;;;;;;12.00;6.10;;;-1.80;99.90;;;;;;5074087;28;20503;-77
2022/03/01 07:55:50;;;;;;;12.87;6.80;;;-1.80;99.90;;;;;;5072432;28;21125;-78
2022/03/01 07:58:18;;;;;;;10.43;6.53;;;-1.70;99.90;;;;;;5073866;28;20490;-77
2022/03/01 08:00:47;;;;;;;13.17;7.00;;;-1.60;99.90;;;;;;5072990;28;20483;-78
2022/03/01 08:03:16;;;;;;;10.90;6.43;;;-1.50;99.90;;;;;;5072841;28;20542;-76
2022/03/01 08:05:45;;;;;;;10.33;6.40;;;-1.40;99.90;;;;;;5072976;28;20832;-79
2022/03/01 08:08:14;;;;;;;10.57;6.33;;;-1.40;99.90;;;;;;5059301;28;20455;-77
2022/03/01 08:10:42;;;;;;;13.50;6.80;;;-1.30;99.90;;;;;;5056425;28;20484;-78
2022/03/01 08:13:30;;;;;;;10.47;6.40;;;-1.20;99.90;;;;;;5072049;28;20867;-78
2022/03/01 08:15:59;;;;;;;14.37;6.97;;;-1.00;99.90;;;;;;5071141;28;20456;-76
2022/03/01 08:18:29;;;;;;;9.47;6.63;;;-0.90;99.90;;;;;;5071701;28;20987;-75
2022/03/01 08:20:57;;;;;;;14.47;6.97;;;-0.70;99.90;;;;;;5072593;28;20536;-77
2022/03/01 08:23:26;;;;;;;9.57;6.00;;;-0.30;99.90;;;;;;5072830;28;20500;-78
2022/03/01 08:25:57;;;;;;;9.53;6.13;;;0.50;99.90;;;;;;5073147;28;20434;-77
2022/03/01 08:28:26;;;;;;;10.03;6.33;;;1.60;96.90;;;;;;5073811;28;20542;-74
2022/03/01 08:30:54;;;;;;;8.27;5.50;;;2.90;93.90;;;;;;5073089;28;20212;-77
2022/03/01 08:33:24;;;;;;;9.57;6.07;;;3.90;91.80;;;;;;5072384;28;20215;-78
2022/03/01 08:35:55;;;;;;;11.63;6.10;;;4.30;90.30;;;;;;5074271;28;20199;-78
2022/03/01 08:38:25;;;;;;;8.27;5.90;;;5.00;87.20;;;;;;5073590;28;20710;-77
2022/03/01 08:40:54;;;;;;;8.77;5.57;;;5.20;84.00;;;;;;5068711;28;20267;-78
2022/03/01 08:43:23;;;;;;;10.17;5.80;;;5.80;81.50;;;;;;5073929;28;20258;-77
2022/03/01 08:45:52;;;;;;;10.27;6.70;;;6.40;80.80;;;;;;5071604;28;20338;-79
2022/03/01 08:48:20;;;;;;;12.17;8.53;;;7.20;75.80;;;;;;5072444;28;20203;-79
2022/03/01 08:50:48;;;;;;;8.00;5.30;;;8.00;72.30;;;;;;5072063;28;20253;-78
2022/03/01 08:53:19;;;;;;;13.60;7.53;;;6.90;70.10;;;;;;5075522;28;20192;-78
2022/03/01 08:55:48;;;;;;;10.30;7.03;;;6.60;72.80;;;;;;5072854;28;20207;-77
2022/03/01 08:58:16;;;;;;;10.17;6.13;;;7.10;72.80;;;;;;5070213;28;20294;-78
2022/03/01 09:00:45;;;;;;;9.80;5.90;;;8.50;70.10;;;;;;5072334;28;20253;-79
2022/03/01 09:03:13;;;;;;;9.37;5.83;;;7.40;69.30;;;;;;5072302;28;20241;-79
2022/03/01 09:06:03;;;;;;;7.07;5.17;;;7.20;70.10;;;;;;5072088;28;20211;-80
2022/03/01 09:08:33;;;;;;;8.23;5.83;;;7.30;69.70;;;;;;5071867;28;20202;-76
2022/03/01 09:11:02;;;;;;;8.07;6.00;;;6.60;71.10;;;;;;5066393;28;20219;-75
2022/03/01 09:13:30;;;;;;;7.60;5.50;;;7.30;70.20;;;;;;5072767;28;20204;-80
2022/03/01 09:15:58;;;;;;;7.43;5.57;;;7.60;69.80;;;;;;5071811;28;20219;-79
2022/03/01 09:18:30;;;;;;;10.40;5.90;;;7.70;70.00;;;;;;5071268;28;20261;-79
2022/03/01 09:20:58;;;;;;;8.03;6.07;;;8.10;68.10;;;;;;5064126;28;20205;-76
2022/03/01 09:23:29;;;;;;;7.27;5.53;;;8.80;66.60;;;;;;5051009;28;20212;-79
2022/03/01 09:25:58;;;;;;;7.10;6.10;;;9.70;64.00;;;;;;5061378;28;20204;-80
2022/03/01 09:28:26;;;;;;;7.67;5.30;;;10.20;61.70;;;;;;5071689;28;20211;-79
2022/03/01 09:30:55;;;;;;;7.50;5.50;;;9.40;62.40;;;;;;5071118;28;20223;-77
2022/03/01 09:33:23;;;;;;;8.70;5.40;;;9.80;61.30;;;;;;5066974;28;20215;-78
2022/03/01 09:35:51;;;;;;;6.57;5.00;;;9.20;60.40;;;;;;5055166;28;20208;-78
2022/03/01 09:38:20;;;;;;;7.43;5.47;;;8.70;60.90;;;;;;5051766;28;20621;-78
2022/03/01 09:40:49;;;;;;;7.20;5.03;;;9.10;60.70;;;;;;5058129;28;20299;-79
2022/03/01 09:43:20;;;;;;;8.07;5.40;;;8.30;61.20;;;;;;5071415;28;20681;-79
2022/03/01 09:45:49;;;;;;;8.53;5.90;;;8.10;62.70;;;;;;5070056;28;20360;-77
2022/03/01 09:48:17;;;;;;;7.37;5.30;;;8.20;63.50;;;;;;5071768;28;20274;-78
2022/03/01 09:50:47;;;;;;;8.53;5.50;;;8.30;63.20;;;;;;5071385;28;20207;-79
2022/03/01 09:53:15;;;;;;;7.80;5.30;;;8.50;62.10;;;;;;5071666;28;20661;-78
2022/03/01 09:55:43;;;;;;;8.07;5.50;;;8.50;62.60;;;;;;5069654;28;20269;-78
2022/03/01 09:58:14;;;;;;;6.70;5.33;;;9.00;61.10;;;;;;5068077;28;20200;-78
2022/03/01 10:00:45;;;;;;;6.97;5.50;;;9.10;60.90;;;;;;5070919;28;20239;-78
2022/03/01 10:03:16;;;;;;;8.90;5.53;;;9.80;61.40;;;;;;5071110;28;20223;-78
2022/03/01 10:05:45;;;;;;;7.70;5.10;;;10.80;57.30;;;;;;5070954;28;20227;-76
2022/03/01 10:08:17;;;;;;;7.67;5.67;;;10.40;55.80;;;;;;5071710;28;20241;-79
2022/03/01 10:10:47;;;;;;;5.80;4.63;;;10.10;55.50;;;;;;5072852;28;20279;-78
2022/03/01 10:13:16;;;;;;;6.47;5.00;;;10.40;55.30;;;;;;5072559;28;20256;-77
2022/03/01 10:15:47;;;;;;;11.53;8.27;;;9.90;56.30;;;;;;5071732;28;20219;-78
2022/03/01 10:18:17;;;;;;;7.43;5.20;;;10.60;55.80;;;;;;5072183;28;20235;-76
2022/03/01 10:20:46;;;;;;;11.47;6.60;;;10.80;54.80;;;;;;5071614;28;20215;-79
2022/03/01 10:23:21;;;;;;;8.00;4.90;;;11.50;54.30;;;;;;5072437;28;20250;-77
2022/03/01 10:25:50;;;;;;;8.23;5.33;;;12.50;52.30;;;;;;5076972;28;20264;-76
2022/03/01 10:28:18;;;;;;;8.57;6.33;;;12.40;51.60;;;;;;5091775;28;20210;-78
2022/03/01 10:30:47;;;;;;;6.53;4.57;;;12.50;51.50;;;;;;5092918;28;20592;-77
2022/03/01 10:33:17;;;;;;;8.37;4.63;;;12.70;52.20;;;;;;5089966;28;20252;-76
2022/03/01 10:35:58;;;;;;;6.17;4.50;;;12.90;50.40;;;;;;5068544;28;20206;-77
2022/03/01 10:38:27;;;;;;;12.03;5.40;;;12.70;49.30;;;;;;5070909;28;20284;-78
2022/03/01 10:40:58;;;;;;;6.87;4.23;;;12.60;50.50;;;;;;5071720;28;20211;-80
2022/03/01 10:43:27;;;;;;;7.07;4.90;;;12.00;49.70;;;;;;5070634;28;20693;-74
2022/03/01 10:45:57;;;;;;;6.67;4.60;;;12.00;51.20;;;;;;5070829;28;20617;-75
2022/03/01 10:48:28;;;;;;;8.07;5.03;;;12.70;50.30;;;;;;5050781;28;20642;-76
2022/03/01 10:51:01;;;;;;;8.03;4.80;;;14.00;50.00;;;;;;5055358;28;20265;-74
2022/03/01 10:53:30;;;;;;;9.37;4.03;;;13.90;49.30;;;;;;5070845;28;20609;-75
2022/03/01 10:56:03;;;;;;;5.87;4.20;;;14.40;46.70;;;;;;5071446;28;20207;-78
2022/03/01 10:58:31;;;;;;;6.57;4.10;;;13.70;46.70;;;;;;5070748;28;20265;-76
2022/03/01 11:01:01;;;;;;;10.77;4.30;;;13.60;47.00;;;;;;5069370;28;20243;-78
2022/03/01 11:03:30;;;;;;;7.10;4.33;;;13.00;48.40;;;;;;5070830;28;20634;-76
2022/03/01 11:06:00;;;;;;;6.67;4.37;;;13.90;47.80;;;;;;5071214;28;20210;-79
2022/03/01 11:08:33;;;;;;;8.77;4.03;;;13.00;47.50;;;;;;5071779;28;20188;-77
2022/03/01 11:11:11;;;;;;;7.53;4.63;;;12.50;47.70;;;;;;5060899;28;20260;-79
2022/03/01 11:13:42;;;;;;;6.53;4.87;;;12.50;48.60;;;;;;5066303;28;20646;-78
2022/03/01 11:16:41;;;;;;;7.33;4.60;;;11.90;48.10;;;;;;5071324;28;20188;-78
2022/03/01 11:19:41;;;;;;;7.10;4.33;;;11.80;48.70;;;;;;5071139;28;20257;-78
2022/03/01 11:22:20;;;;;;;8.40;4.33;;;11.10;49.60;;;;;;5070357;28;20257;-75
2022/03/01 11:24:49;;;;;;;6.67;4.00;;;10.30;51.30;;;;;;5069112;28;20330;-78
2022/03/01 11:27:20;;;;;;;6.50;4.57;;;11.00;51.50;;;;;;5070562;28;20608;-78
2022/03/01 11:29:49;;;;;;;7.43;4.47;;;12.00;50.60;;;;;;5070810;28;20238;-80
2022/03/01 11:32:22;;;;;;;7.23;4.10;;;11.50;49.70;;;;;;5070487;28;20231;-76
2022/03/01 11:35:01;;;;;;;7.13;3.97;;;11.10;50.00;;;;;;5068376;28;20242;-78
2022/03/01 11:37:29;;;;;;;8.27;4.60;;;11.50;51.30;;;;;;5069775;28;20606;-78
2022/03/01 11:40:00;;;;;;;5.13;4.37;;;11.70;50.50;;;;;;5073533;28;20218;-78
2022/03/01 11:42:32;;;;;;;5.47;4.53;;;11.60;50.90;;;;;;5069905;28;20629;-78
2022/03/01 11:45:09;;;;;;;6.70;5.13;;;11.00;51.50;;;;;;5052605;28;20232;-78
2022/03/01 11:47:38;;;;;;;7.07;4.63;;;11.80;52.00;;;;;;5052863;28;20562;-77
2022/03/01 11:50:23;;;;;;;8.43;4.90;;;12.10;50.90;;;;;;5053430;28;20600;-78
2022/03/01 11:52:57;;;;;;;5.73;4.57;;;11.30;51.20;;;;;;5070329;28;20230;-80
2022/03/01 11:55:33;;;;;;;7.77;4.57;;;11.40;51.90;;;;;;5071915;28;20609;-78
2022/03/01 11:58:02;;;;;;;7.73;4.77;;;11.30;51.90;;;;;;5072208;28;20231;-77
2022/03/01 12:00:34;;;;;;;5.93;4.47;;;11.00;51.90;;;;;;5066531;28;20289;-79
2022/03/01 12:03:10;;;;;;;6.20;4.70;;;10.60;53.30;;;;;;5067237;28;20234;-77
2022/03/01 12:05:38;;;;;;;5.37;4.20;;;10.30;53.40;;;;;;5071579;28;20725;-76
2022/03/01 12:08:09;;;;;;;7.87;5.10;;;10.30;54.20;;;;;;5066091;28;20290;-78
2022/03/01 12:10:53;;;;;;;6.87;4.73;;;9.70;54.10;;;;;;5066791;28;20232;-81
2022/03/01 12:13:22;;;;;;;6.60;5.07;;;9.10;56.50;;;;;;5073832;28;20231;-77
2022/03/01 12:15:57;;;;;;;7.00;4.83;;;8.70;56.80;;;;;;5072399;28;20286;-80
2022/03/01 12:18:31;;;;;;;8.83;5.03;;;8.50;57.70;;;;;;5071328;28;20204;-80
2022/03/01 12:21:02;;;;;;;6.80;5.07;;;8.30;58.00;;;;;;5067082;28;20303;-77
2022/03/01 12:23:39;;;;;;;9.00;5.20;;;8.10;57.80;;;;;;5073018;28;20203;-78
2022/03/01 12:26:09;;;;;;;7.77;5.03;;;7.60;58.20;;;;;;5079759;28;20254;-81
2022/03/01 12:28:39;;;;;;;9.03;5.37;;;7.60;59.90;;;;;;5073525;28;20203;-79
2022/03/01 12:31:08;;;;;;;6.63;4.80;;;7.40;59.70;;;;;;5072125;28;20630;-79
2022/03/01 12:33:48;;;;;;;8.70;5.70;;;7.50;59.60;;;;;;5071065;28;20203;-79
2022/03/01 12:36:24;;;;;;;9.20;4.77;;;7.60;60.80;;;;;;5076202;28;20265;-78
2022/03/01 12:38:54;;;;;;;7.53;4.93;;;7.70;59.70;;;;;;5069286;28;20256;-77
2022/03/01 12:41:23;;;;;;;8.40;4.80;;;7.70;59.20;;;;;;5078764;28;20286;-79
2022/03/01 12:44:01;;;;;;;6.10;4.77;;;7.90;61.70;;;;;;5077878;28;20297;-75
2022/03/01 12:46:30;;;;;;;6.73;5.27;;;8.00;59.20;;;;;;5067648;28;20204;-75
2022/03/01 12:49:01;;;;;;;8.47;4.90;;;7.60;58.90;;;;;;5080923;28;20297;-76
2022/03/01 12:51:30;;;;;;;7.30;4.90;;;7.50;60.20;;;;;;5070788;28;20727;-77
2022/03/01 12:54:00;;;;;;;8.00;4.97;;;7.80;59.70;;;;;;5075872;28;20244;-77
2022/03/01 12:56:32;;;;;;;6.50;4.77;;;7.90;60.00;;;;;;5068868;28;20203;-77